createdAt,value
2017-11-01T00:00:59.731Z,0
2017-11-01T00:02:09.806Z,0
2017-11-01T00:03:20.205Z,0
2017-11-01T00:04:30.653Z,0
2017-11-01T00:05:40.806Z,0
2017-11-01T00:06:50.872Z,0
2017-11-01T00:08:00.962Z,0
2017-11-01T00:09:11.371Z,0
2017-11-01T00:10:21.778Z,0
2017-11-01T00:11:32.188Z,0
2017-11-01T00:12:42.581Z,0
2017-11-01T00:14:05.716Z,0
2017-11-01T00:15:16.129Z,0
2017-11-01T00:16:26.528Z,0
2017-11-01T00:17:36.597Z,0
2017-11-01T00:18:46.679Z,0
2017-11-01T00:19:56.752Z,0
2017-11-01T00:21:07.158Z,0
2017-11-01T00:22:17.548Z,0
2017-11-01T00:23:27.629Z,0
2017-11-01T00:24:37.699Z,0
2017-11-01T00:25:47.764Z,0
2017-11-01T00:26:58.166Z,0
2017-11-01T00:28:08.624Z,0
2017-11-01T00:29:19.044Z,0
2017-11-01T00:30:29.112Z,0
2017-11-01T00:31:39.594Z,0
2017-11-01T00:32:49.330Z,0
2017-11-01T00:33:59.720Z,0
2017-11-01T00:35:10.129Z,0
2017-11-01T00:36:20.209Z,0
2017-11-01T00:37:30.626Z,0
2017-11-01T00:38:41.029Z,0
2017-11-01T00:39:51.420Z,0
2017-11-01T00:41:01.814Z,0
2017-11-01T00:42:11.909Z,0
2017-11-01T00:43:22.305Z,0
2017-11-01T00:44:32.373Z,0
2017-11-01T00:45:42.825Z,0
2017-11-01T00:46:53.220Z,0
2017-11-01T00:48:03.640Z,0
2017-11-01T00:49:14.044Z,0
2017-11-01T00:50:24.451Z,0
2017-11-01T00:51:34.609Z,0
2017-11-01T00:52:45.012Z,0
2017-11-01T00:53:55.412Z,0
2017-11-01T00:55:05.808Z,0
2017-11-01T00:56:16.225Z,0
2017-11-01T00:57:26.632Z,0
2017-11-01T00:58:37.069Z,0
2017-11-01T00:59:47.475Z,0
2017-11-01T01:00:57.201Z,0
2017-11-01T01:02:07.596Z,0
2017-11-01T01:03:18.054Z,0
2017-11-01T01:04:28.458Z,0
2017-11-01T01:05:38.878Z,0
2017-11-01T01:06:49.294Z,0
2017-11-01T01:07:59.369Z,0
2017-11-01T01:09:09.765Z,0
2017-11-01T01:10:19.503Z,0
2017-11-01T01:11:29.923Z,0
2017-11-01T01:12:40.020Z,0
2017-11-01T01:13:50.402Z,0
2017-11-01T01:15:00.805Z,0
2017-11-01T01:16:11.204Z,0
2017-11-01T01:17:21.605Z,0
2017-11-01T01:18:31.984Z,0
2017-11-01T01:19:42.428Z,0
2017-11-01T01:20:52.544Z,0
2017-11-01T01:22:02.602Z,0
2017-11-01T01:23:13.012Z,0
2017-11-01T01:24:23.073Z,0
2017-11-01T01:25:33.139Z,0
2017-11-01T01:26:43.260Z,0
2017-11-01T01:27:54.121Z,0
2017-11-01T01:29:04.536Z,0
2017-11-01T01:30:15.282Z,0
2017-11-01T01:31:25.934Z,0
2017-11-01T01:32:36.377Z,0
2017-11-01T01:33:46.761Z,0
2017-11-01T01:34:56.825Z,0
2017-11-01T01:36:06.906Z,0
2017-11-01T01:37:16.661Z,0
2017-11-01T01:38:27.140Z,0
2017-11-01T01:39:37.761Z,0
2017-11-01T01:40:47.837Z,0
2017-11-01T01:41:58.241Z,0
2017-11-01T01:43:08.640Z,0
2017-11-01T01:44:18.713Z,0
2017-11-01T01:45:29.108Z,0
2017-11-01T01:46:38.851Z,0
2017-11-01T01:47:49.433Z,0
2017-11-01T01:48:59.500Z,0
2017-11-01T01:50:09.961Z,0
2017-11-01T01:51:20.028Z,0
2017-11-01T01:52:30.114Z,0
2017-11-01T01:53:40.521Z,0
2017-11-01T01:54:50.905Z,0
2017-11-01T01:56:01.331Z,0
2017-11-01T01:57:11.738Z,0
2017-11-01T01:58:22.124Z,0
2017-11-01T01:59:32.206Z,0
2017-11-01T02:00:42.610Z,0
2017-11-01T02:01:53.015Z,0
2017-11-01T02:03:03.416Z,0
2017-11-01T02:04:13.806Z,0
2017-11-01T02:05:24.209Z,0
2017-11-01T02:06:34.615Z,0
2017-11-01T02:07:44.673Z,0
2017-11-01T02:08:54.732Z,0
2017-11-01T02:10:05.129Z,0
2017-11-01T02:11:15.530Z,0
2017-11-01T02:12:25.932Z,0
2017-11-01T02:13:36.065Z,0
2017-11-01T02:14:46.461Z,0
2017-11-01T02:15:56.853Z,0
2017-11-01T02:17:08.067Z,0
2017-11-01T02:18:18.692Z,0
2017-11-01T02:19:32.172Z,0
2017-11-01T02:20:42.894Z,0
2017-11-01T02:21:54.793Z,0
2017-11-01T02:23:06.725Z,0
2017-11-01T02:24:17.271Z,0
2017-11-01T02:25:29.684Z,0
2017-11-01T02:26:40.965Z,0
2017-11-01T02:27:51.732Z,0
2017-11-01T02:29:02.463Z,0
2017-11-01T02:30:12.737Z,0
2017-11-01T02:31:23.134Z,0
2017-11-01T02:32:33.554Z,0
2017-11-01T02:33:43.973Z,0
2017-11-01T02:34:54.038Z,0
2017-11-01T02:36:04.104Z,0
2017-11-01T02:37:14.548Z,0
2017-11-01T02:38:24.955Z,0
2017-11-01T02:39:35.345Z,0
2017-11-01T02:40:45.753Z,0
2017-11-01T02:41:56.169Z,0
2017-11-01T02:43:06.625Z,0
2017-11-01T02:44:17.036Z,0
2017-11-01T02:45:27.104Z,0
2017-11-01T02:46:37.513Z,0
2017-11-01T02:47:47.922Z,0
2017-11-01T02:48:58.349Z,0
2017-11-01T02:50:08.755Z,0
2017-11-01T02:51:18.170Z,0
2017-11-01T02:52:28.249Z,0
2017-11-01T02:53:38.560Z,0
2017-11-01T02:54:49.118Z,0
2017-11-01T02:55:59.211Z,0
2017-11-01T02:57:09.608Z,0
2017-11-01T02:58:20.011Z,0
2017-11-01T02:59:30.412Z,0
2017-11-01T03:00:41.606Z,0
2017-11-01T03:01:52.017Z,0
2017-11-01T03:33:18.012Z,0
2017-11-01T03:34:28.427Z,0
2017-11-01T03:35:38.809Z,0
2017-11-01T03:36:48.882Z,0
2017-11-01T03:37:59.287Z,0
2017-11-01T03:39:09.348Z,0
2017-11-01T03:40:19.091Z,0
2017-11-01T03:41:29.192Z,0
2017-11-01T03:42:39.885Z,0
2017-11-01T03:43:50.279Z,0
2017-11-01T03:45:00.686Z,0
2017-11-01T03:46:11.090Z,0
2017-11-01T03:47:21.182Z,0
2017-11-01T03:48:31.596Z,0
2017-11-01T03:49:42.002Z,0
2017-11-01T03:50:52.448Z,0
2017-11-01T03:52:02.529Z,0
2017-11-01T03:53:12.570Z,0
2017-11-01T03:54:22.287Z,0
2017-11-01T03:55:32.695Z,0
2017-11-01T03:56:42.770Z,0
2017-11-01T03:57:53.159Z,0
2017-11-01T03:59:02.908Z,0
2017-11-01T04:00:13.307Z,0
2017-11-01T04:01:23.378Z,0
2017-11-01T04:02:33.490Z,0
2017-11-01T04:03:43.886Z,0
2017-11-01T04:04:54.273Z,0
2017-11-01T04:06:04.655Z,0
2017-11-01T04:07:14.733Z,0
2017-11-01T04:08:25.181Z,0
2017-11-01T04:09:35.277Z,0
2017-11-01T04:10:45.678Z,0
2017-11-01T04:11:56.073Z,0
2017-11-01T04:13:06.475Z,0
2017-11-01T04:14:16.929Z,0
2017-11-01T04:15:27.340Z,0
2017-11-01T04:16:37.728Z,0
2017-11-01T04:17:48.114Z,0
2017-11-01T04:18:58.175Z,0
2017-11-01T04:20:08.614Z,0
2017-11-01T04:21:19.004Z,0
2017-11-01T04:22:29.404Z,0
2017-11-01T04:23:39.479Z,0
2017-11-01T04:24:49.886Z,0
2017-11-01T04:25:59.954Z,0
2017-11-01T04:27:10.019Z,0
2017-11-01T04:28:20.409Z,0
2017-11-01T04:29:30.805Z,0
2017-11-01T04:30:41.208Z,0
2017-11-01T04:31:51.283Z,0
2017-11-01T04:33:01.700Z,0
2017-11-01T04:34:11.763Z,0
2017-11-01T04:35:22.171Z,0
2017-11-01T04:36:32.600Z,0
2017-11-01T04:37:42.989Z,0
2017-11-01T04:38:53.055Z,0
2017-11-01T04:40:03.122Z,0
2017-11-01T04:41:13.520Z,0
2017-11-01T04:42:23.920Z,0
2017-11-01T04:43:34.363Z,0
2017-11-01T04:44:44.759Z,0
2017-11-01T04:45:54.828Z,0
2017-11-01T04:47:05.221Z,0
2017-11-01T04:48:15.622Z,0
2017-11-01T04:49:25.735Z,0
2017-11-01T04:50:35.803Z,0
2017-11-01T04:51:45.877Z,0
2017-11-01T04:52:55.951Z,0
2017-11-01T04:54:06.022Z,0
2017-11-01T04:55:16.405Z,0
2017-11-01T04:56:26.781Z,0
2017-11-01T04:57:36.540Z,0
2017-11-01T04:58:47.151Z,0
2017-11-01T04:59:57.552Z,0
2017-11-01T05:01:08.016Z,0
2017-11-01T05:02:18.410Z,0
2017-11-01T05:03:28.803Z,0
2017-11-01T05:04:39.190Z,0
2017-11-01T05:05:49.261Z,0
2017-11-01T05:06:59.703Z,0
2017-11-01T05:08:09.762Z,4
2017-11-01T05:09:19.846Z,0
2017-11-01T05:10:30.244Z,0
2017-11-01T05:11:40.674Z,4
2017-11-01T05:12:51.111Z,0
2017-11-01T05:14:01.199Z,4
2017-11-01T05:15:11.598Z,4
2017-11-01T05:16:21.985Z,4
2017-11-01T05:17:32.384Z,4
2017-11-01T05:18:42.761Z,8
2017-11-01T05:19:52.826Z,8
2017-11-01T05:21:03.072Z,12
2017-11-01T05:22:13.475Z,12
2017-11-01T05:23:23.867Z,16
2017-11-01T05:24:34.309Z,20
2017-11-01T05:25:44.725Z,24
2017-11-01T05:26:55.128Z,28
2017-11-01T05:28:05.525Z,32
2017-11-01T05:29:15.931Z,40
2017-11-01T05:30:26.059Z,48
2017-11-01T05:31:36.128Z,56
2017-11-01T05:32:46.199Z,64
2017-11-01T05:33:56.259Z,76
2017-11-01T05:35:06.657Z,88
2017-11-01T05:36:16.776Z,96
2017-11-01T05:37:26.844Z,112
2017-11-01T05:38:36.571Z,128
2017-11-01T05:39:46.966Z,144
2017-11-01T05:40:57.037Z,160
2017-11-01T05:42:07.460Z,184
2017-11-01T05:43:17.860Z,200
2017-11-01T05:44:27.905Z,220
2017-11-01T05:45:37.961Z,236
2017-11-01T05:46:48.353Z,260
2017-11-01T05:47:58.782Z,284
2017-11-01T05:49:09.188Z,308
2017-11-01T05:50:19.571Z,336
2017-11-01T05:51:29.311Z,360
2017-11-01T05:52:39.698Z,388
2017-11-01T05:53:50.158Z,416
2017-11-01T05:55:00.558Z,448
2017-11-01T05:56:10.976Z,480
2017-11-01T05:57:20.707Z,508
2017-11-01T05:58:31.120Z,544
2017-11-01T05:59:41.573Z,576
2017-11-01T06:00:51.962Z,608
2017-11-01T06:02:02.024Z,640
2017-11-01T06:03:12.423Z,672
2017-11-01T06:04:22.827Z,696
2017-11-01T06:05:33.206Z,732
2017-11-01T06:06:43.610Z,764
2017-11-01T06:07:54.003Z,796
2017-11-01T06:09:04.411Z,832
2017-11-01T06:10:14.495Z,868
2017-11-01T06:11:24.985Z,912
2017-11-01T06:12:35.060Z,956
2017-11-01T06:13:45.159Z,1008
2017-11-01T06:14:55.554Z,1068
2017-11-01T06:16:05.607Z,1128
2017-11-01T06:17:15.672Z,1192
2017-11-01T06:18:26.063Z,1260
2017-11-01T06:19:36.476Z,1324
2017-11-01T06:20:46.863Z,1380
2017-11-01T06:21:57.264Z,1432
2017-11-01T06:23:07.746Z,1468
2017-11-01T06:24:17.820Z,1496
2017-11-01T06:25:28.221Z,1524
2017-11-01T06:26:38.626Z,1544
2017-11-01T06:27:48.692Z,1576
2017-11-01T06:28:59.079Z,1636
2017-11-01T06:30:09.508Z,1692
2017-11-01T06:31:19.894Z,1736
2017-11-01T06:32:29.951Z,1756
2017-11-01T06:33:40.352Z,1772
2017-11-01T06:34:50.427Z,1804
2017-11-01T06:36:00.820Z,1904
2017-11-01T06:37:11.219Z,2080
2017-11-01T06:38:21.283Z,2216
2017-11-01T06:39:31.034Z,2328
2017-11-01T06:40:41.166Z,2388
2017-11-01T06:41:51.566Z,2396
2017-11-01T06:43:01.645Z,2388
2017-11-01T06:44:12.052Z,2416
2017-11-01T06:45:22.474Z,2408
2017-11-01T06:46:32.938Z,2452
2017-11-01T06:47:43.028Z,2492
2017-11-01T06:48:52.763Z,2520
2017-11-01T06:50:03.172Z,2560
2017-11-01T06:51:13.563Z,2596
2017-11-01T06:52:23.670Z,2616
2017-11-01T06:53:34.073Z,2708
2017-11-01T06:54:44.126Z,2816
2017-11-01T06:55:54.515Z,2896
2017-11-01T06:57:04.925Z,2952
2017-11-01T06:58:15.317Z,2944
2017-11-01T06:59:25.402Z,2608
2017-11-01T07:00:35.459Z,2564
2017-11-01T07:01:45.555Z,2320
2017-11-01T07:02:55.627Z,2764
2017-11-01T07:04:05.733Z,2572
2017-11-01T07:05:16.154Z,2676
2017-11-01T07:06:26.580Z,3140
2017-11-01T07:07:36.967Z,2424
2017-11-01T07:08:47.380Z,2584
2017-11-01T07:09:57.767Z,2616
2017-11-01T07:11:08.164Z,2696
2017-11-01T07:12:18.270Z,2484
2017-11-01T07:13:28.692Z,2396
2017-11-01T07:14:39.084Z,2452
2017-11-01T07:15:49.531Z,2680
2017-11-01T07:16:59.936Z,2636
2017-11-01T07:18:10.340Z,2628
2017-11-01T07:19:20.759Z,2380
2017-11-01T07:20:30.504Z,2328
2017-11-01T07:21:40.940Z,2280
2017-11-01T07:22:51.014Z,2244
2017-11-01T07:24:01.400Z,2220
2017-11-01T07:25:11.800Z,2204
2017-11-01T07:26:22.198Z,2184
2017-11-01T07:27:32.654Z,2176
2017-11-01T07:28:43.051Z,2176
2017-11-01T07:29:53.116Z,2184
2017-11-01T07:31:02.854Z,2204
2017-11-01T07:32:13.261Z,2224
2017-11-01T07:33:23.360Z,2240
2017-11-01T07:34:33.784Z,2252
2017-11-01T07:35:43.864Z,2252
2017-11-01T07:36:54.293Z,2256
2017-11-01T07:38:04.371Z,2260
2017-11-01T07:39:14.425Z,2268
2017-11-01T07:40:24.823Z,2280
2017-11-01T07:41:34.903Z,2296
2017-11-01T07:42:44.966Z,2304
2017-11-01T07:43:55.395Z,2308
2017-11-01T07:45:05.810Z,2308
2017-11-01T07:46:16.196Z,2312
2017-11-01T07:47:26.340Z,2320
2017-11-01T07:48:36.742Z,2316
2017-11-01T07:49:46.488Z,2300
2017-11-01T07:50:56.959Z,2280
2017-11-01T07:52:07.371Z,2272
2017-11-01T07:53:17.761Z,2260
2017-11-01T07:54:28.179Z,2260
2017-11-01T07:55:38.376Z,2260
2017-11-01T07:56:48.517Z,2268
2017-11-01T07:57:58.600Z,2284
2017-11-01T07:59:08.700Z,2300
2017-11-01T08:00:19.256Z,2320
2017-11-01T08:01:29.326Z,2332
2017-11-01T08:02:39.461Z,2340
2017-11-01T08:03:49.533Z,2352
2017-11-01T08:04:59.934Z,2380
2017-11-01T08:06:09.707Z,2424
2017-11-01T08:07:19.795Z,2476
2017-11-01T08:08:30.256Z,2536
2017-11-01T08:09:40.646Z,2608
2017-11-01T08:10:50.673Z,2672
2017-11-01T08:12:00.745Z,2716
2017-11-01T08:13:10.823Z,2736
2017-11-01T08:14:21.227Z,2740
2017-11-01T08:15:31.622Z,2732
2017-11-01T08:16:42.033Z,2728
2017-11-01T08:17:52.426Z,2756
2017-11-01T08:19:03.078Z,2804
2017-11-01T08:20:13.213Z,2864
2017-11-01T08:21:23.294Z,2928
2017-11-01T08:22:33.718Z,2992
2017-11-01T08:23:43.790Z,3052
2017-11-01T08:24:54.184Z,3136
2017-11-01T08:26:03.917Z,3212
2017-11-01T08:27:14.327Z,3280
2017-11-01T08:28:24.419Z,3332
2017-11-01T08:29:34.832Z,3364
2017-11-01T08:30:45.249Z,3408
2017-11-01T08:31:55.372Z,3456
2017-11-01T08:33:05.782Z,3488
2017-11-01T08:34:16.188Z,3512
2017-11-01T08:35:26.282Z,3516
2017-11-01T08:36:36.360Z,3512
2017-11-01T08:37:46.492Z,3504
2017-11-01T08:38:56.885Z,3512
2017-11-01T08:40:07.296Z,3512
2017-11-01T08:41:17.740Z,3500
2017-11-01T08:42:28.173Z,3492
2017-11-01T08:43:37.965Z,3504
2017-11-01T08:44:48.386Z,3536
2017-11-01T08:45:58.792Z,3616
2017-11-01T08:47:09.178Z,3708
2017-11-01T08:48:19.249Z,3792
2017-11-01T08:49:29.695Z,3892
2017-11-01T08:50:40.118Z,3996
2017-11-01T08:51:50.198Z,3988
2017-11-01T08:53:00.596Z,4012
2017-11-01T08:54:10.989Z,4024
2017-11-01T08:55:21.413Z,4068
2017-11-01T08:56:31.829Z,4060
2017-11-01T08:57:42.255Z,4076
2017-11-01T08:58:52.326Z,4116
2017-11-01T09:00:02.724Z,4092
2017-11-01T09:01:13.150Z,4092
2017-11-01T09:02:23.223Z,4108
2017-11-01T09:03:33.636Z,4096
2017-11-01T09:04:43.718Z,4052
2017-11-01T09:05:54.140Z,3976
2017-11-01T09:07:04.562Z,3884
2017-11-01T09:08:14.990Z,3780
2017-11-01T09:09:24.726Z,3700
2017-11-01T09:10:34.806Z,3624
2017-11-01T09:11:45.224Z,3576
2017-11-01T09:12:55.649Z,3612
2017-11-01T09:14:05.726Z,3720
2017-11-01T09:15:15.792Z,3832
2017-11-01T09:16:26.180Z,3912
2017-11-01T09:17:36.269Z,3928
2017-11-01T09:18:46.715Z,3972
2017-11-01T09:19:57.156Z,3984
2017-11-01T09:21:07.548Z,4004
2017-11-01T09:22:17.969Z,4240
2017-11-01T09:23:28.042Z,4152
2017-11-01T09:24:38.120Z,4256
2017-11-01T09:25:48.200Z,4284
2017-11-01T09:26:58.273Z,4536
2017-11-01T09:28:08.690Z,4244
2017-11-01T09:29:19.087Z,4724
2017-11-01T09:30:29.209Z,4616
2017-11-01T09:31:39.629Z,4780
2017-11-01T09:32:50.042Z,5104
2017-11-01T09:34:00.433Z,6592
2017-11-01T09:35:10.840Z,7916
2017-11-01T09:36:21.293Z,7128
2017-11-01T09:37:31.708Z,7780
2017-11-01T09:38:42.113Z,4684
2017-11-01T09:39:52.213Z,4164
2017-11-01T09:41:03.244Z,5652
2017-11-01T09:42:13.685Z,4060
2017-11-01T09:43:24.100Z,3896
2017-11-01T09:44:34.196Z,4312
2017-11-01T09:45:44.267Z,3868
2017-11-01T09:46:54.671Z,4264
2017-11-01T09:48:05.084Z,6432
2017-11-01T09:49:15.478Z,7520
2017-11-01T09:50:25.914Z,7476
2017-11-01T09:51:36.315Z,4716
2017-11-01T09:52:46.409Z,4664
2017-11-01T09:53:56.902Z,5148
2017-11-01T09:55:07.312Z,4536
2017-11-01T09:56:17.754Z,6088
2017-11-01T09:57:27.846Z,5568
2017-11-01T09:58:38.302Z,5936
2017-11-01T09:59:48.719Z,6896
2017-11-01T10:00:58.456Z,5368
2017-11-01T10:02:08.893Z,7904
2017-11-01T10:03:18.635Z,7136
2017-11-01T10:04:28.399Z,6424
2017-11-01T10:05:38.522Z,5832
2017-11-01T10:06:48.624Z,6352
2017-11-01T10:07:59.036Z,4564
2017-11-01T10:09:09.466Z,4548
2017-11-01T10:10:19.878Z,4724
2017-11-01T10:11:30.271Z,6544
2017-11-01T10:12:40.671Z,4944
2017-11-01T10:13:51.098Z,5412
2017-11-01T10:15:01.217Z,4060
2017-11-01T10:16:11.624Z,7180
2017-11-01T10:17:22.093Z,5100
2017-11-01T10:18:32.182Z,6192
2017-11-01T10:19:42.284Z,6868
2017-11-01T10:20:52.727Z,7028
2017-11-01T10:22:02.804Z,7304
2017-11-01T10:23:13.277Z,7524
2017-11-01T10:24:23.369Z,7084
2017-11-01T10:25:33.430Z,4292
2017-11-01T10:26:43.831Z,4612
2017-11-01T10:27:54.230Z,5040
2017-11-01T10:29:04.708Z,3980
2017-11-01T10:30:15.109Z,3688
2017-11-01T10:31:25.182Z,6580
2017-11-01T10:32:35.603Z,7804
2017-11-01T10:33:45.698Z,7968
2017-11-01T10:34:55.779Z,6740
2017-11-01T10:36:06.232Z,4316
2017-11-01T10:37:16.313Z,6572
2017-11-01T10:38:26.756Z,7264
2017-11-01T10:39:37.203Z,8316
2017-11-01T10:40:47.673Z,6428
2017-11-01T10:41:58.082Z,4684
2017-11-01T10:43:08.488Z,4924
2017-11-01T10:44:18.909Z,9016
2017-11-01T10:45:29.321Z,9500
2017-11-01T10:46:39.390Z,6836
2017-11-01T10:47:49.501Z,7016
2017-11-01T10:48:59.899Z,5400
2017-11-01T10:50:09.974Z,6612
2017-11-01T10:51:20.044Z,6316
2017-11-01T10:52:30.509Z,6216
2017-11-01T10:53:40.634Z,5672
2017-11-01T10:54:50.384Z,7112
2017-11-01T10:56:00.802Z,5216
2017-11-01T10:57:11.230Z,4692
2017-11-01T10:58:21.323Z,4436
2017-11-01T10:59:31.752Z,4256
2017-11-01T11:00:42.379Z,4100
2017-11-01T11:01:52.815Z,3976
2017-11-01T11:03:02.882Z,3884
2017-11-01T11:04:12.972Z,3840
2017-11-01T11:05:23.056Z,3840
2017-11-01T11:06:32.474Z,3836
2017-11-01T11:07:42.895Z,3836
2017-11-01T11:08:53.308Z,3796
2017-11-01T11:10:03.428Z,3724
2017-11-01T11:11:13.830Z,3620
2017-11-01T11:12:23.913Z,3524
2017-11-01T11:13:34.309Z,3428
2017-11-01T11:14:44.380Z,3344
2017-11-01T11:15:54.117Z,3292
2017-11-01T11:17:04.553Z,3260
2017-11-01T11:18:14.631Z,3276
2017-11-01T11:19:25.059Z,3276
2017-11-01T11:20:35.494Z,3324
2017-11-01T11:21:45.955Z,3464
2017-11-01T11:22:56.382Z,3604
2017-11-01T11:24:06.819Z,3660
2017-11-01T11:25:16.922Z,3768
2017-11-01T11:26:26.673Z,3892
2017-11-01T11:27:37.077Z,3952
2017-11-01T11:28:47.161Z,3908
2017-11-01T11:29:57.237Z,3840
2017-11-01T11:31:07.315Z,3768
2017-11-01T11:32:17.735Z,3768
2017-11-01T11:33:28.195Z,3792
2017-11-01T11:34:38.656Z,3784
2017-11-01T11:35:49.061Z,3768
2017-11-01T11:36:59.149Z,3740
2017-11-01T11:38:08.555Z,3704
2017-11-01T11:39:19.002Z,3676
2017-11-01T11:40:29.097Z,3684
2017-11-01T11:41:39.483Z,3688
2017-11-01T11:42:49.873Z,3740
2017-11-01T11:44:00.290Z,3820
2017-11-01T11:45:10.389Z,3908
2017-11-01T11:46:20.802Z,3932
2017-11-01T11:47:31.217Z,3952
2017-11-01T11:48:41.641Z,4040
2017-11-01T11:49:51.390Z,4080
2017-11-01T11:51:01.871Z,4128
2017-11-01T11:52:12.295Z,4168
2017-11-01T11:53:22.706Z,4128
2017-11-01T11:54:32.794Z,4068
2017-11-01T11:55:43.209Z,4016
2017-11-01T11:56:53.616Z,4012
2017-11-01T11:58:04.028Z,4040
2017-11-01T11:59:14.432Z,4052
2017-11-01T12:00:24.823Z,4016
2017-11-01T12:01:34.906Z,3936
2017-11-01T12:02:45.029Z,3844
2017-11-01T12:03:55.120Z,3700
2017-11-01T12:05:05.556Z,3568
2017-11-01T12:06:15.653Z,3584
2017-11-01T12:07:25.734Z,3700
2017-11-01T12:08:36.151Z,3888
2017-11-01T12:09:46.569Z,4040
2017-11-01T12:10:56.984Z,4140
2017-11-01T12:12:07.072Z,4168
2017-11-01T12:13:17.507Z,3872
2017-11-01T12:14:27.992Z,3616
2017-11-01T12:15:38.400Z,3364
2017-11-01T12:16:48.817Z,3316
2017-11-01T12:17:59.235Z,3356
2017-11-01T12:19:09.663Z,3468
2017-11-01T12:20:20.145Z,3568
2017-11-01T12:21:30.551Z,3568
2017-11-01T12:22:40.613Z,3476
2017-11-01T12:23:51.034Z,3336
2017-11-01T12:25:01.456Z,3240
2017-11-01T12:26:11.902Z,3172
2017-11-01T12:27:22.317Z,3096
2017-11-01T12:28:32.770Z,2956
2017-11-01T12:29:43.173Z,2768
2017-11-01T12:30:53.276Z,2580
2017-11-01T12:32:03.076Z,2428
2017-11-01T12:33:13.483Z,2300
2017-11-01T12:34:23.889Z,2192
2017-11-01T12:35:34.329Z,2116
2017-11-01T12:36:44.402Z,2100
2017-11-01T12:37:54.866Z,2124
2017-11-01T12:39:05.288Z,2164
2017-11-01T12:40:15.714Z,2208
2017-11-01T12:41:25.787Z,2228
2017-11-01T12:42:36.219Z,2204
2017-11-01T12:43:46.693Z,2172
2017-11-01T12:44:57.106Z,2164
2017-11-01T12:46:07.518Z,2192
2017-11-01T12:47:17.933Z,2192
2017-11-01T12:48:28.066Z,2168
2017-11-01T12:49:38.575Z,2180
2017-11-01T12:50:48.342Z,2180
2017-11-01T12:51:58.734Z,2144
2017-11-01T12:53:09.141Z,2104
2017-11-01T12:54:19.597Z,2076
2017-11-01T12:55:29.773Z,2072
2017-11-01T12:56:39.898Z,2048
2017-11-01T12:57:50.335Z,2000
2017-11-01T12:59:00.767Z,1968
2017-11-01T13:00:11.206Z,1928
2017-11-01T13:01:21.624Z,1912
2017-11-01T13:02:32.025Z,1920
2017-11-01T13:03:42.117Z,1908
2017-11-01T13:04:52.533Z,1896
2017-11-01T13:06:02.951Z,1864
2017-11-01T13:07:13.431Z,1832
2017-11-01T13:08:23.858Z,1784
2017-11-01T13:09:34.257Z,1712
2017-11-01T13:10:44.662Z,1656
2017-11-01T13:11:55.112Z,1704
2017-11-01T13:13:05.218Z,1908
2017-11-01T13:14:15.626Z,2080
2017-11-01T13:15:26.040Z,2160
2017-11-01T13:16:36.480Z,2204
2017-11-01T13:17:46.901Z,2208
2017-11-01T13:18:57.391Z,2196
2017-11-01T13:20:07.839Z,2176
2017-11-01T13:21:18.262Z,2132
2017-11-01T13:22:28.692Z,2076
2017-11-01T13:23:38.793Z,2044
2017-11-01T13:24:48.942Z,1992
2017-11-01T13:25:59.354Z,1924
2017-11-01T13:27:09.768Z,1860
2017-11-01T13:28:19.853Z,1788
2017-11-01T13:29:30.287Z,1708
2017-11-01T13:30:40.765Z,1612
2017-11-01T13:31:51.203Z,1512
2017-11-01T13:33:01.625Z,1416
2017-11-01T13:34:11.719Z,1340
2017-11-01T13:35:22.185Z,1272
2017-11-01T13:36:32.322Z,1224
2017-11-01T13:37:42.761Z,1188
2017-11-01T13:38:52.852Z,1136
2017-11-01T13:40:03.248Z,1064
2017-11-01T13:41:13.673Z,992
2017-11-01T13:42:24.146Z,944
2017-11-01T13:43:34.542Z,936
2017-11-01T13:44:44.967Z,944
2017-11-01T13:45:55.422Z,956
2017-11-01T13:47:05.513Z,956
2017-11-01T13:48:15.636Z,960
2017-11-01T13:49:26.042Z,972
2017-11-01T13:50:36.442Z,1008
2017-11-01T13:51:46.515Z,1056
2017-11-01T13:52:56.926Z,1096
2017-11-01T13:54:07.054Z,1112
2017-11-01T13:55:17.146Z,1124
2017-11-01T13:56:27.559Z,1140
2017-11-01T13:57:37.979Z,1168
2017-11-01T13:58:48.381Z,1216
2017-11-01T13:59:58.852Z,1268
2017-11-01T14:01:09.280Z,1328
2017-11-01T14:02:19.692Z,1372
2017-11-01T14:03:29.762Z,1384
2017-11-01T14:04:39.850Z,1380
2017-11-01T14:05:50.320Z,1388
2017-11-01T14:07:00.064Z,1416
2017-11-01T14:08:10.481Z,1428
2017-11-01T14:09:20.899Z,1412
2017-11-01T14:10:31.312Z,1392
2017-11-01T14:11:41.376Z,1360
2017-11-01T14:12:51.789Z,1316
2017-11-01T14:14:02.207Z,1260
2017-11-01T14:15:12.616Z,1192
2017-11-01T14:16:23.033Z,1136
2017-11-01T14:17:33.491Z,1108
2017-11-01T14:18:43.919Z,1076
2017-11-01T14:19:53.995Z,1040
2017-11-01T14:21:04.403Z,1004
2017-11-01T14:22:14.492Z,960
2017-11-01T14:23:24.973Z,920
2017-11-01T14:24:35.059Z,888
2017-11-01T14:25:45.498Z,880
2017-11-01T14:26:55.920Z,884
2017-11-01T14:28:06.323Z,888
2017-11-01T14:29:16.787Z,876
2017-11-01T14:30:27.259Z,860
2017-11-01T14:31:37.676Z,840
2017-11-01T14:32:48.089Z,828
2017-11-01T14:33:58.518Z,840
2017-11-01T14:35:09.026Z,876
2017-11-01T14:36:19.447Z,916
2017-11-01T14:37:29.535Z,892
2017-11-01T14:38:39.997Z,836
2017-11-01T14:39:50.085Z,776
2017-11-01T14:41:00.231Z,724
2017-11-01T14:42:10.333Z,684
2017-11-01T14:43:20.760Z,644
2017-11-01T14:44:31.221Z,600
2017-11-01T14:45:41.297Z,552
2017-11-01T14:46:51.392Z,512
2017-11-01T14:48:01.499Z,496
2017-11-01T14:49:11.594Z,488
2017-11-01T14:50:22.053Z,484
2017-11-01T14:51:32.502Z,488
2017-11-01T14:52:43.031Z,484
2017-11-01T14:53:53.119Z,476
2017-11-01T14:55:03.550Z,464
2017-11-01T14:56:13.969Z,448
2017-11-01T14:57:24.418Z,432
2017-11-01T14:58:34.912Z,420
2017-11-01T14:59:45.324Z,404
2017-11-01T15:00:55.738Z,392
2017-11-01T15:02:06.145Z,372
2017-11-01T15:03:16.564Z,348
2017-11-01T15:04:26.664Z,332
2017-11-01T15:05:36.722Z,320
2017-11-01T15:06:47.142Z,300
2017-11-01T15:07:57.541Z,280
2017-11-01T15:09:08.012Z,260
2017-11-01T15:10:18.101Z,240
2017-11-01T15:11:28.521Z,220
2017-11-01T15:12:38.930Z,204
2017-11-01T15:13:49.010Z,188
2017-11-01T15:14:59.433Z,172
2017-11-01T15:16:09.932Z,160
2017-11-01T15:17:20.356Z,148
2017-11-01T15:18:30.092Z,136
2017-11-01T15:19:39.852Z,124
2017-11-01T15:20:49.950Z,112
2017-11-01T15:22:00.404Z,100
2017-11-01T15:23:10.827Z,88
2017-11-01T15:24:21.238Z,80
2017-11-01T15:25:31.305Z,72
2017-11-01T15:26:41.409Z,64
2017-11-01T15:27:51.846Z,60
2017-11-01T15:29:01.589Z,56
2017-11-01T15:30:12.010Z,48
2017-11-01T15:31:22.435Z,44
2017-11-01T15:32:32.857Z,40
2017-11-01T15:33:43.324Z,36
2017-11-01T15:34:53.418Z,32
2017-11-01T15:36:03.841Z,28
2017-11-01T15:37:14.272Z,24
2017-11-01T15:38:24.027Z,24
2017-11-01T15:39:34.508Z,20
2017-11-01T15:40:44.915Z,16
2017-11-01T15:41:55.021Z,16
2017-11-01T15:43:05.438Z,12
2017-11-01T15:44:15.514Z,12
2017-11-01T15:45:25.992Z,8
2017-11-01T15:46:36.408Z,8
2017-11-01T15:47:46.816Z,8
2017-11-01T15:48:56.895Z,8
2017-11-01T15:50:07.302Z,4
2017-11-01T15:51:17.738Z,4
2017-11-01T15:52:28.167Z,4
2017-11-01T15:53:38.586Z,0
2017-11-01T15:54:48.652Z,4
2017-11-01T15:55:59.053Z,0
2017-11-01T15:57:09.482Z,0
2017-11-01T15:58:19.575Z,4
2017-11-01T15:59:29.944Z,4
2017-11-01T16:00:40.038Z,0
2017-11-01T16:01:50.428Z,0
2017-11-01T16:03:00.880Z,0
2017-11-01T16:04:11.312Z,0
2017-11-01T16:05:21.751Z,0
2017-11-01T16:06:31.834Z,0
2017-11-01T16:07:42.257Z,0
2017-11-01T16:08:52.670Z,0
2017-11-01T16:10:03.082Z,0
2017-11-01T16:11:13.487Z,0
2017-11-01T16:12:23.573Z,0
2017-11-01T16:13:33.983Z,0
2017-11-01T16:14:44.408Z,0
2017-11-01T16:15:54.860Z,0
2017-11-01T16:17:04.941Z,0
2017-11-01T16:18:15.375Z,0
2017-11-01T16:19:25.815Z,0
2017-11-01T16:20:36.229Z,0
2017-11-01T16:21:46.612Z,0
2017-11-01T16:22:57.037Z,0
2017-11-01T16:24:07.443Z,0
2017-11-01T16:25:17.871Z,0
2017-11-01T16:26:28.338Z,0
2017-11-01T16:27:38.755Z,0
2017-11-01T16:28:49.190Z,0
2017-11-01T16:29:59.600Z,0
2017-11-01T16:31:10.020Z,0
2017-11-01T16:32:20.440Z,0
2017-11-01T16:33:30.835Z,0
2017-11-01T16:34:41.246Z,0
2017-11-01T16:35:51.674Z,0
2017-11-01T16:37:02.104Z,0
2017-11-01T16:38:12.539Z,0
2017-11-01T16:39:22.947Z,0
2017-11-01T16:40:32.997Z,0
2017-11-01T16:41:43.123Z,0
2017-11-01T16:42:53.548Z,0
2017-11-01T16:44:03.615Z,0
2017-11-01T16:45:13.716Z,0
2017-11-01T16:46:23.815Z,0
2017-11-01T16:47:34.217Z,0